Gumbo, Missouri
Current Conditions -  °F | °C
As of 11:54 PM on Friday 19 Dec 2014 (Local Time) from KSUS Reporting Station
Overcast Overcast  
Wind Chill: 35°   Ceiling: 2900
Heat Index: 35°   Visibility: 8mi
Dew Point: 28°   Wind: 0mph
Humidity: 76%   Direction: NA
Pressure: 30.27"   Gusts: NA
Location:  38.6405°N, 90.6464°W
Report Text: KSUS 200554Z AUTO 00000KT 8SM OVC029 02/M02 A3027 RMK AO2 SLP256 T00171022 10022 20017 400280000 51005
Loading
Personal Weather Stations






























Interactive Weather Map New forecast layout! Learn more

10-Day Weather Forecast

Advertisements
Track Severe Weather on mobile